Forside
METAR-TAF:

METAR-TAF

Lufthavne :

Bloomington / Normal, Illinois, USA

Breddekreds: 40-29N, længdekreds: 088-55W, højde: 267 m

Aktuelle vejr

Denne rapport blev lavet for 1 time og 0 minutter siden, kl. 16:56 UTC
Vind 15 kt fra østsydøst
Temperatur -12°C
Fugtighed 66%
Tryk 1034 hPa
Sigt: 16.1 km
skyfri

METAR: KBMI 211656Z 12015KT 10SM CLR M12/M17 A3052 RMK AO2 SLP353 T11221167

Tid: 11:56 (17:56 UTC)

Vejrudsigter

Denne rapport blev lavet for 28 minutter siden, kl. 17:28 UTC
Foreløbig gælder fra 21 på 18 UTC til 22 på 18 UTC
Vind 16 kt fra sydøst med vindstød på up til 24 kt
Sigt: 10 km
Brudte skyer i en højde af 12000 ft
Fra 22 på 0600 UTC
Vind 18 kt fra sydsydøst med vindstød på up til 25 kt
Sigt: 10 km
Brudte skyer i en højde af 9000 ft
Fra 22 på 1500 UTC
Vind 20 kt fra sydsydøst med vindstød på up til 28 kt
Sigt: 10 km
Overskyet i en højde af 3000 ft

TAF: KBMI 211728Z 2118/2218 13016G24KT P6SM BKN120 FM220600 15018G25KT P6SM BKN090 WS020/17045KT FM221500 16020G28KT P6SM OVC030 WS020/19050KT

Vejrobservationer og prognoser fra mere end 4000 lufthavne (METAR og TAF).

De gule og røde prikker repræsenterer de meteorologiske stationer.

Flyt musen over at se navnet på stationen.

Så klik over at se vejr observationer og prognoser.

At skifte det kort: Klik på de grønne knapper med et sort kors for at zoome ind; på den grønne knap med en bindestreg for at zoome ud; eller på de grønne pile for tilstødende kort.


METAR-TAF: